Time;durP1;ratioP1;P1;durP2;ratioP2;P2;SDS_P1;SDS_P2;PMS_P1;PMS_P2;Temp;Humidity;BMP_temperature;BMP_pressure;BME280_temperature;BME280_humidity;BME280_pressure;Samples;Min_cycle;Max_cycle;Signal;HPM_P1;HPM_P2
2023/08/17 00:00:13;;;;;;;9.20;3.30;;;20.70;99.90;;;;;;7280852;19;20192;-75
2023/08/17 00:02:40;;;;;;;7.77;3.73;;;20.70;99.90;;;;;;7278639;19;20287;-75
2023/08/17 00:05:06;;;;;;;7.70;3.60;;;20.70;99.90;;;;;;7280137;19;20195;-75
2023/08/17 00:07:33;;;;;;;8.90;3.50;;;20.70;99.90;;;;;;7281573;19;20705;-75
2023/08/17 00:09:58;;;;;;;11.87;3.50;;;20.70;99.90;;;;;;7278244;19;20600;-75
2023/08/17 00:12:25;;;;;;;9.47;3.80;;;20.80;99.90;;;;;;7301722;19;20242;-75
2023/08/17 00:14:51;;;;;;;8.70;2.80;;;20.70;99.90;;;;;;7277314;19;20189;-76
2023/08/17 00:17:17;;;;;;;8.10;2.80;;;20.80;99.90;;;;;;7280226;19;20175;-76
2023/08/17 00:19:42;;;;;;;7.97;3.50;;;20.70;99.90;;;;;;7280550;19;20185;-75
2023/08/17 00:22:08;;;;;;;10.37;2.80;;;20.60;99.90;;;;;;7280561;19;20559;-76
2023/08/17 00:24:34;;;;;;;7.87;3.30;;;20.60;99.90;;;;;;7279521;19;20278;-75
2023/08/17 00:27:00;;;;;;;8.63;3.20;;;20.60;99.90;;;;;;7278635;19;20184;-75
2023/08/17 00:29:25;;;;;;;7.53;3.33;;;20.70;99.90;;;;;;7301659;19;20188;-75
2023/08/17 00:31:52;;;;;;;8.70;3.03;;;20.60;99.90;;;;;;7279861;19;20854;-76
2023/08/17 00:34:18;;;;;;;7.00;3.20;;;20.70;99.90;;;;;;7279478;19;20197;-76
2023/08/17 00:36:44;;;;;;;7.17;3.00;;;20.60;99.90;;;;;;7278444;19;20570;-76
2023/08/17 00:39:10;;;;;;;5.87;2.80;;;20.50;99.90;;;;;;7279348;19;20191;-75
2023/08/17 00:41:36;;;;;;;6.90;2.90;;;20.40;99.90;;;;;;7278582;19;20345;-75
2023/08/17 00:44:02;;;;;;;6.77;3.10;;;20.30;99.90;;;;;;7278700;19;20747;-75
2023/08/17 00:46:29;;;;;;;8.23;3.13;;;20.30;99.90;;;;;;7279383;19;20190;-75
2023/08/17 00:48:56;;;;;;;7.37;3.10;;;20.20;99.90;;;;;;7300102;19;20187;-76
2023/08/17 00:51:26;;;;;;;6.00;2.80;;;20.20;99.90;;;;;;7277782;19;20683;-76
2023/08/17 00:53:58;;;;;;;7.10;3.30;;;20.10;99.90;;;;;;7280340;19;20189;-76
2023/08/17 00:56:25;;;;;;;6.43;3.30;;;20.10;99.90;;;;;;7279122;19;20189;-74
2023/08/17 00:58:52;;;;;;;7.37;2.83;;;20.10;99.90;;;;;;7279348;19;20242;-75
2023/08/17 01:01:18;;;;;;;4.90;2.70;;;20.30;99.90;;;;;;7278352;19;20179;-76
2023/08/17 01:03:43;;;;;;;5.37;2.90;;;20.10;99.90;;;;;;7276791;19;20192;-75
2023/08/17 01:06:10;;;;;;;5.87;2.90;;;19.90;99.90;;;;;;7278345;19;20199;-74
2023/08/17 01:08:37;;;;;;;6.80;3.03;;;19.90;99.90;;;;;;7278094;19;20769;-75
2023/08/17 01:11:24;;;;;;;6.17;3.10;;;19.90;99.90;;;;;;7277224;19;20218;-75
2023/08/17 01:14:28;;;;;;;5.40;2.70;;;19.90;99.90;;;;;;7277218;19;20202;-77
2023/08/17 01:17:22;;;;;;;7.17;3.00;;;19.80;99.90;;;;;;7176228;19;2006006;-75
2023/08/17 01:19:50;;;;;;;6.60;2.70;;;19.60;99.90;;;;;;7175721;19;2006084;-76
2023/08/17 01:22:20;;;;;;;6.30;3.03;;;19.50;99.90;;;;;;7277956;19;21032;-75
2023/08/17 01:24:46;;;;;;;5.13;2.70;;;19.50;99.90;;;;;;7277991;19;20262;-75
2023/08/17 01:27:12;;;;;;;6.90;3.10;;;19.50;99.90;;;;;;7284277;19;20207;-76
2023/08/17 01:29:38;;;;;;;8.30;3.00;;;19.60;99.90;;;;;;7283205;19;20197;-76
2023/08/17 01:32:18;;;;;;;6.87;3.20;;;19.60;99.90;;;;;;7284660;19;20578;-75
2023/08/17 01:35:13;;;;;;;8.40;3.00;;;19.70;99.90;;;;;;7282882;19;20185;-76
2023/08/17 01:37:42;;;;;;;7.93;3.73;;;19.80;99.90;;;;;;7181299;19;2006243;-76
2023/08/17 01:40:09;;;;;;;8.50;3.50;;;19.80;99.90;;;;;;7283760;19;20656;-76
2023/08/17 01:42:37;;;;;;;7.10;3.33;;;19.90;99.90;;;;;;7284726;19;20627;-76
2023/08/17 01:45:03;;;;;;;5.90;3.20;;;20.00;99.90;;;;;;7283680;19;20208;-76
2023/08/17 01:47:30;;;;;;;6.33;3.20;;;20.00;99.90;;;;;;7284338;19;20266;-75
2023/08/17 01:49:59;;;;;;;9.57;3.17;;;20.00;99.90;;;;;;7304817;19;20186;-76
2023/08/17 01:52:27;;;;;;;9.47;3.60;;;19.90;99.90;;;;;;7284664;19;20202;-76
2023/08/17 01:54:53;;;;;;;6.27;3.10;;;19.90;99.90;;;;;;7284903;19;20218;-76
2023/08/17 01:57:19;;;;;;;6.73;3.23;;;19.90;99.90;;;;;;7283731;19;20919;-76
2023/08/17 01:59:45;;;;;;;9.43;4.03;;;19.90;99.90;;;;;;7283706;19;20197;-75
2023/08/17 02:02:14;;;;;;;8.50;3.87;;;19.80;99.90;;;;;;7284033;19;20210;-75
2023/08/17 02:04:40;;;;;;;9.07;3.80;;;19.70;99.90;;;;;;7282467;19;20678;-75
2023/08/17 02:07:08;;;;;;;9.87;3.60;;;19.50;99.90;;;;;;7282901;19;20795;-76
2023/08/17 02:09:33;;;;;;;7.87;3.93;;;19.30;99.90;;;;;;7283506;19;20199;-75
2023/08/17 02:11:59;;;;;;;8.13;3.97;;;19.20;99.90;;;;;;7281951;19;20185;-75
2023/08/17 02:14:25;;;;;;;8.23;4.13;;;19.20;99.90;;;;;;7304397;19;20206;-76
2023/08/17 02:16:52;;;;;;;10.60;4.60;;;19.20;99.90;;;;;;7283599;19;20643;-76
2023/08/17 02:19:18;;;;;;;10.23;4.57;;;19.20;99.90;;;;;;7284469;19;20183;-76
2023/08/17 02:21:44;;;;;;;8.67;4.40;;;19.10;99.90;;;;;;7283514;19;20256;-76
2023/08/17 02:24:10;;;;;;;7.73;4.43;;;19.00;99.90;;;;;;7283434;19;20548;-76
2023/08/17 02:26:38;;;;;;;11.60;5.37;;;19.00;99.90;;;;;;7281026;19;20244;-76
2023/08/17 02:29:04;;;;;;;9.50;4.63;;;19.00;99.90;;;;;;7282504;19;20267;-76
2023/08/17 02:31:29;;;;;;;10.37;5.00;;;19.10;99.90;;;;;;7282677;19;20647;-76
2023/08/17 02:34:00;;;;;;;11.33;4.70;;;19.10;99.90;;;;;;7304956;19;20203;-75
2023/08/17 02:36:27;;;;;;;12.60;4.70;;;19.20;99.90;;;;;;7303747;19;20532;-76
2023/08/17 02:38:53;;;;;;;9.90;4.87;;;19.30;99.90;;;;;;7280509;19;20190;-76
2023/08/17 02:41:18;;;;;;;9.70;5.00;;;19.40;99.90;;;;;;7281843;19;20208;-76
2023/08/17 02:43:44;;;;;;;10.67;4.93;;;19.50;99.90;;;;;;7282051;19;20189;-75
2023/08/17 02:46:12;;;;;;;11.23;5.07;;;19.40;99.90;;;;;;7282431;19;20185;-76
2023/08/17 02:48:37;;;;;;;11.13;4.70;;;19.40;99.90;;;;;;7283337;19;20233;-76
2023/08/17 02:51:03;;;;;;;7.57;4.57;;;19.60;99.90;;;;;;7281821;19;20528;-76
2023/08/17 02:53:29;;;;;;;11.17;5.20;;;19.50;99.90;;;;;;7282980;19;20200;-76
2023/08/17 02:55:55;;;;;;;9.57;4.60;;;19.50;99.90;;;;;;7303461;19;20257;-76
2023/08/17 02:58:20;;;;;;;9.37;4.73;;;19.50;99.90;;;;;;7281704;19;20195;-76
2023/08/17 03:00:46;;;;;;;10.90;4.40;;;19.40;99.90;;;;;;7281840;19;20249;-76
2023/08/17 03:03:13;;;;;;;11.60;4.37;;;19.60;99.90;;;;;;7281177;19;20194;-76
2023/08/17 03:05:39;;;;;;;9.50;4.47;;;19.50;99.90;;;;;;7282275;19;20190;-75
2023/08/17 03:08:05;;;;;;;7.90;4.40;;;19.30;99.90;;;;;;7281048;19;20237;-76
2023/08/17 03:10:31;;;;;;;8.83;4.50;;;19.20;99.90;;;;;;7281011;19;20206;-76
2023/08/17 03:12:57;;;;;;;10.13;4.57;;;19.20;99.90;;;;;;7294708;19;20694;-75
2023/08/17 03:15:24;;;;;;;14.97;5.00;;;19.30;99.90;;;;;;7302334;19;20598;-76
2023/08/17 03:17:49;;;;;;;13.50;4.80;;;19.20;99.90;;;;;;7281312;19;20211;-76
2023/08/17 03:20:15;;;;;;;9.70;4.47;;;19.40;99.90;;;;;;7280459;19;20198;-76
2023/08/17 03:22:41;;;;;;;10.93;4.70;;;19.30;99.90;;;;;;7281069;19;20647;-75
2023/08/17 03:25:07;;;;;;;9.73;4.47;;;19.20;99.90;;;;;;7279839;19;20229;-76
2023/08/17 03:27:33;;;;;;;10.93;4.67;;;19.20;99.90;;;;;;7280857;19;20241;-76
2023/08/17 03:29:59;;;;;;;9.63;4.73;;;19.20;99.90;;;;;;7279705;19;20185;-75
2023/08/17 03:32:25;;;;;;;12.90;4.40;;;19.20;99.90;;;;;;7303550;19;20193;-75
2023/08/17 03:34:51;;;;;;;10.53;4.50;;;19.10;99.90;;;;;;7281773;19;20192;-75
2023/08/17 03:37:17;;;;;;;12.10;4.70;;;19.00;99.90;;;;;;7280502;19;20202;-75
2023/08/17 03:39:42;;;;;;;9.80;4.23;;;19.10;99.90;;;;;;7281164;19;20184;-75
2023/08/17 03:42:08;;;;;;;12.70;5.37;;;19.10;99.90;;;;;;7280078;19;20203;-75
2023/08/17 03:44:34;;;;;;;8.97;4.07;;;19.10;99.90;;;;;;7279705;19;20298;-76
2023/08/17 03:47:00;;;;;;;8.33;4.20;;;19.20;99.90;;;;;;7279638;19;20189;-76
2023/08/17 03:49:26;;;;;;;7.47;3.90;;;19.20;99.90;;;;;;7300521;19;20193;-76
2023/08/17 03:51:52;;;;;;;7.67;4.20;;;19.20;99.90;;;;;;7280782;19;20215;-76
2023/08/17 03:54:19;;;;;;;8.53;4.13;;;19.20;99.90;;;;;;7280360;19;20740;-75
2023/08/17 03:56:44;;;;;;;9.57;4.30;;;19.20;99.90;;;;;;7279131;19;20192;-75
2023/08/17 03:59:10;;;;;;;9.77;3.97;;;19.30;99.90;;;;;;7279115;19;20675;-76
2023/08/17 04:01:36;;;;;;;9.93;4.23;;;19.30;99.90;;;;;;7280481;19;20202;-76
2023/08/17 04:04:02;;;;;;;9.37;4.40;;;19.40;99.90;;;;;;7277620;19;20599;-75
2023/08/17 04:06:28;;;;;;;10.53;4.20;;;19.60;99.90;;;;;;7290835;19;20700;-76
2023/08/17 04:08:53;;;;;;;10.93;4.00;;;19.60;99.90;;;;;;7301845;19;20181;-76
2023/08/17 04:11:19;;;;;;;9.00;4.40;;;19.60;99.90;;;;;;7279807;19;20200;-75
2023/08/17 04:13:47;;;;;;;7.50;3.73;;;19.50;99.90;;;;;;7278934;19;20220;-75
2023/08/17 04:16:12;;;;;;;10.33;4.20;;;19.40;99.90;;;;;;7280061;19;20184;-76
2023/08/17 04:18:39;;;;;;;11.63;4.10;;;19.40;99.90;;;;;;7278944;19;20199;-75
2023/08/17 04:21:04;;;;;;;11.90;4.17;;;19.30;99.90;;;;;;7279225;19;20202;-75
2023/08/17 04:23:30;;;;;;;10.97;4.13;;;19.20;99.90;;;;;;7279437;19;20189;-76
2023/08/17 04:25:56;;;;;;;9.23;3.73;;;19.30;99.90;;;;;;7302308;19;21184;-75
2023/08/17 04:28:23;;;;;;;10.67;4.43;;;19.30;99.90;;;;;;7278822;19;20185;-75
2023/08/17 04:30:51;;;;;;;9.67;4.10;;;19.50;99.90;;;;;;7280517;19;20180;-76
2023/08/17 04:33:17;;;;;;;9.67;4.37;;;19.40;99.90;;;;;;7280063;19;20221;-75
2023/08/17 04:35:47;;;;;;;9.07;4.00;;;19.30;99.90;;;;;;7279602;19;20234;-75
2023/08/17 04:38:13;;;;;;;8.17;3.70;;;19.30;99.90;;;;;;7280783;19;20200;-76
2023/08/17 04:40:39;;;;;;;8.90;4.27;;;19.40;99.90;;;;;;7280521;19;20193;-75
2023/08/17 04:43:06;;;;;;;13.00;4.17;;;19.40;99.90;;;;;;7279802;19;20201;-75
2023/08/17 04:45:33;;;;;;;8.73;3.67;;;19.50;99.90;;;;;;7281322;19;20258;-75
2023/08/17 04:47:59;;;;;;;10.47;4.33;;;19.40;99.90;;;;;;7278470;19;20370;-75
2023/08/17 04:50:24;;;;;;;9.80;4.03;;;19.40;99.90;;;;;;7301006;19;20196;-75
2023/08/17 04:52:52;;;;;;;9.40;4.03;;;19.20;99.90;;;;;;7278289;19;20222;-75
2023/08/17 04:55:18;;;;;;;7.80;3.70;;;19.20;99.90;;;;;;7277672;19;20197;-76
2023/08/17 04:57:44;;;;;;;8.00;3.77;;;19.20;99.90;;;;;;7279708;19;20200;-75
2023/08/17 05:00:13;;;;;;;10.07;4.10;;;19.30;99.90;;;;;;7277944;19;20195;-75
2023/08/17 05:02:39;;;;;;;9.63;4.33;;;19.30;99.90;;;;;;7284832;19;20192;-76
2023/08/17 05:05:07;;;;;;;9.80;4.10;;;19.30;99.90;;;;;;7284663;19;20193;-75
2023/08/17 05:07:33;;;;;;;11.50;3.80;;;19.20;99.90;;;;;;7284964;19;20189;-75
2023/08/17 05:10:00;;;;;;;8.17;3.90;;;19.20;99.90;;;;;;7284205;19;20220;-75
2023/08/17 05:12:26;;;;;;;7.23;3.50;;;19.30;99.90;;;;;;7307255;19;20184;-75
2023/08/17 05:14:52;;;;;;;8.67;3.77;;;19.30;99.90;;;;;;7285923;19;20687;-75
2023/08/17 05:17:18;;;;;;;10.13;4.37;;;19.30;99.90;;;;;;7284483;19;20277;-75
2023/08/17 05:19:44;;;;;;;10.43;4.03;;;19.20;99.90;;;;;;7285519;19;20696;-75
2023/08/17 05:22:11;;;;;;;9.87;3.90;;;19.20;99.90;;;;;;7284197;19;20188;-74
2023/08/17 05:24:38;;;;;;;9.00;4.33;;;19.20;99.90;;;;;;7283684;19;20191;-75
2023/08/17 05:27:04;;;;;;;13.33;4.70;;;19.30;99.90;;;;;;7284167;19;20184;-75
2023/08/17 05:29:32;;;;;;;7.47;3.90;;;19.40;99.90;;;;;;7285038;19;20187;-75
2023/08/17 05:31:58;;;;;;;10.73;4.83;;;19.50;99.90;;;;;;7297651;19;20190;-74
2023/08/17 05:34:24;;;;;;;8.73;4.27;;;19.50;99.90;;;;;;7306908;19;20276;-75
2023/08/17 05:36:50;;;;;;;9.00;4.40;;;19.40;99.90;;;;;;7283607;19;20264;-75
2023/08/17 05:39:16;;;;;;;9.70;4.67;;;19.40;99.90;;;;;;7282319;19;20256;-75
2023/08/17 05:41:42;;;;;;;10.13;4.30;;;19.50;99.90;;;;;;7283418;19;20189;-75
2023/08/17 05:44:07;;;;;;;8.33;4.27;;;19.50;99.90;;;;;;7282828;19;20704;-74
2023/08/17 05:46:34;;;;;;;9.63;4.40;;;19.40;99.90;;;;;;7282930;19;20848;-75
2023/08/17 05:49:01;;;;;;;11.00;4.23;;;19.50;99.90;;;;;;7283725;19;20188;-75
2023/08/17 05:51:27;;;;;;;9.13;3.77;;;19.40;99.90;;;;;;7301521;19;20194;-75
2023/08/17 05:53:53;;;;;;;10.63;4.10;;;19.50;99.90;;;;;;7296843;19;20185;-75
2023/08/17 05:56:19;;;;;;;12.03;4.60;;;19.50;99.90;;;;;;7283804;19;20571;-75
2023/08/17 05:58:44;;;;;;;10.77;4.30;;;19.60;99.90;;;;;;7283439;19;20216;-74
2023/08/17 06:01:12;;;;;;;11.10;4.47;;;19.70;99.90;;;;;;7283052;19;20188;-75
2023/08/17 06:03:38;;;;;;;11.50;4.20;;;19.90;99.90;;;;;;7283622;19;20548;-75
2023/08/17 06:06:07;;;;;;;10.73;4.33;;;19.90;99.90;;;;;;7283307;19;20195;-74
2023/08/17 06:08:33;;;;;;;9.77;4.30;;;20.00;99.90;;;;;;7283048;19;20195;-75
2023/08/17 06:10:59;;;;;;;10.43;3.90;;;20.00;99.90;;;;;;7282650;19;20248;-74
2023/08/17 06:13:25;;;;;;;8.27;3.80;;;20.20;99.90;;;;;;7302786;19;20640;-75
2023/08/17 06:15:51;;;;;;;11.00;4.40;;;20.30;99.90;;;;;;7284047;19;20198;-75
2023/08/17 06:18:16;;;;;;;11.97;4.93;;;20.20;99.90;;;;;;7283676;19;20197;-74
2023/08/17 06:20:42;;;;;;;10.13;3.70;;;20.30;99.90;;;;;;7282098;19;20826;-74
2023/08/17 06:23:08;;;;;;;11.90;7.30;;;20.30;99.90;;;;;;7282925;19;20191;-74
2023/08/17 06:25:34;;;;;;;8.47;4.50;;;20.30;99.90;;;;;;7282482;19;20320;-75
2023/08/17 06:28:00;;;;;;;10.67;4.30;;;20.30;99.90;;;;;;7282511;19;20206;-75
2023/08/17 06:30:26;;;;;;;9.40;4.27;;;20.30;99.90;;;;;;7304779;19;20184;-74
2023/08/17 06:32:52;;;;;;;10.70;4.30;;;20.30;99.90;;;;;;7282991;19;20539;-75
2023/08/17 06:35:18;;;;;;;9.93;4.10;;;20.40;99.90;;;;;;7283188;19;20290;-75
2023/08/17 06:37:43;;;;;;;8.83;4.37;;;20.40;99.90;;;;;;7281297;19;20653;-75
2023/08/17 06:40:09;;;;;;;10.63;4.30;;;20.50;99.90;;;;;;7282097;19;20190;-75
2023/08/17 06:42:35;;;;;;;11.57;4.33;;;20.30;99.90;;;;;;7282913;19;20195;-75
2023/08/17 06:45:02;;;;;;;11.23;5.43;;;20.30;99.90;;;;;;7282355;19;20209;-75
2023/08/17 06:47:28;;;;;;;13.90;4.70;;;20.10;99.90;;;;;;7299252;19;20185;-75
2023/08/17 06:49:55;;;;;;;13.93;4.63;;;20.00;99.90;;;;;;7294389;19;20221;-75
2023/08/17 06:52:20;;;;;;;10.30;4.40;;;20.10;99.90;;;;;;7282628;19;20656;-75
2023/08/17 06:54:46;;;;;;;13.07;4.93;;;20.00;99.90;;;;;;7282031;19;20185;-75
2023/08/17 06:57:12;;;;;;;15.37;5.47;;;20.10;99.90;;;;;;7283057;19;20232;-75
2023/08/17 06:59:37;;;;;;;12.53;4.87;;;20.20;99.90;;;;;;7282144;19;20192;-75
2023/08/17 07:02:03;;;;;;;12.43;4.97;;;20.30;99.90;;;;;;7281246;19;20182;-75
2023/08/17 07:04:29;;;;;;;11.10;5.17;;;20.50;99.90;;;;;;7283300;19;20199;-75
2023/08/17 07:06:55;;;;;;;12.10;5.13;;;20.50;99.90;;;;;;7304777;19;20193;-74
2023/08/17 07:09:21;;;;;;;11.43;4.80;;;20.30;99.90;;;;;;7281961;19;20180;-75
2023/08/17 07:11:47;;;;;;;11.63;5.97;;;20.40;99.90;;;;;;7280827;19;20185;-76
2023/08/17 07:14:12;;;;;;;14.40;5.87;;;20.40;99.90;;;;;;7280469;19;20661;-76
2023/08/17 07:16:38;;;;;;;17.83;6.33;;;20.40;99.90;;;;;;7283589;19;20184;-75
2023/08/17 07:19:04;;;;;;;19.67;6.83;;;20.40;99.90;;;;;;7280628;19;20181;-75
2023/08/17 07:21:30;;;;;;;14.70;6.63;;;20.50;99.90;;;;;;7282731;19;20254;-75
2023/08/17 07:23:55;;;;;;;14.83;6.60;;;20.50;99.90;;;;;;7300953;19;20200;-75
2023/08/17 07:26:22;;;;;;;19.60;6.80;;;20.40;99.90;;;;;;7280875;19;20192;-75
2023/08/17 07:28:49;;;;;;;16.47;7.20;;;20.30;99.90;;;;;;7279512;19;20200;-75
2023/08/17 07:31:15;;;;;;;19.83;7.37;;;20.40;99.90;;;;;;7280519;19;20275;-75
2023/08/17 07:33:40;;;;;;;18.17;7.00;;;20.30;99.90;;;;;;7280988;19;20554;-75
2023/08/17 07:36:06;;;;;;;16.77;7.20;;;20.20;99.90;;;;;;7281424;19;20192;-75
2023/08/17 07:38:32;;;;;;;23.37;7.40;;;20.40;99.90;;;;;;7279428;19;20186;-76
2023/08/17 07:40:58;;;;;;;15.77;7.40;;;20.30;99.90;;;;;;7297909;19;20190;-75
2023/08/17 07:43:24;;;;;;;15.97;7.03;;;20.50;99.90;;;;;;7295972;19;20214;-75
2023/08/17 07:45:57;;;;;;;19.23;7.87;;;20.60;99.90;;;;;;7280684;19;20186;-75
2023/08/17 07:48:22;;;;;;;17.73;7.23;;;20.70;99.90;;;;;;7280571;19;20182;-75
2023/08/17 07:50:50;;;;;;;23.83;7.93;;;20.70;99.90;;;;;;7281312;19;20190;-75
2023/08/17 07:53:16;;;;;;;17.40;6.70;;;20.70;99.90;;;;;;7279901;19;20202;-75
2023/08/17 07:55:42;;;;;;;17.23;7.60;;;20.80;99.90;;;;;;7281251;19;20186;-74
2023/08/17 07:58:08;;;;;;;14.40;6.70;;;20.80;99.90;;;;;;7279501;19;20223;-75
2023/08/17 08:00:33;;;;;;;15.90;7.73;;;20.90;99.90;;;;;;7279995;19;20192;-75
2023/08/17 08:02:59;;;;;;;17.90;7.60;;;20.90;99.90;;;;;;7283065;19;20307;-74
2023/08/17 08:05:26;;;;;;;18.53;7.77;;;20.90;99.90;;;;;;7302362;19;20298;-76
2023/08/17 08:07:52;;;;;;;19.17;7.93;;;20.80;99.90;;;;;;7280300;19;20272;-76
2023/08/17 08:10:18;;;;;;;20.30;7.90;;;20.90;99.90;;;;;;7279857;19;20224;-76
2023/08/17 08:12:43;;;;;;;14.37;7.63;;;20.80;99.90;;;;;;7280369;19;20189;-76
2023/08/17 08:15:09;;;;;;;13.87;7.17;;;20.70;99.90;;;;;;7279592;19;20646;-75
2023/08/17 08:17:35;;;;;;;19.13;7.63;;;20.70;99.90;;;;;;7278302;19;20190;-76
2023/08/17 08:20:01;;;;;;;16.87;6.83;;;20.90;99.90;;;;;;7278460;19;20191;-75
2023/08/17 08:22:27;;;;;;;17.60;7.70;;;21.10;99.90;;;;;;7301057;19;20190;-76
2023/08/17 08:24:53;;;;;;;15.90;7.37;;;21.20;99.90;;;;;;7280216;19;20342;-76
2023/08/17 08:27:18;;;;;;;21.27;8.10;;;21.20;99.90;;;;;;7279496;19;20703;-76
2023/08/17 08:29:44;;;;;;;22.17;7.90;;;21.20;99.90;;;;;;7279529;19;20194;-75
2023/08/17 08:32:10;;;;;;;20.33;7.77;;;21.30;99.90;;;;;;7278244;19;20188;-76
2023/08/17 08:34:36;;;;;;;19.03;8.23;;;21.50;99.90;;;;;;7277372;19;20211;-76
2023/08/17 08:37:02;;;;;;;15.80;8.27;;;21.70;99.90;;;;;;7276449;19;20194;-75
2023/08/17 08:39:27;;;;;;;17.60;7.87;;;21.90;99.90;;;;;;7300590;19;20280;-75
2023/08/17 08:41:54;;;;;;;16.30;8.60;;;21.90;99.90;;;;;;7277934;19;22408;-75
2023/08/17 08:44:20;;;;;;;15.43;7.63;;;21.90;99.90;;;;;;7279835;19;20184;-75
2023/08/17 08:46:46;;;;;;;16.17;8.87;;;21.80;99.90;;;;;;7277927;19;22010;-75
2023/08/17 08:49:12;;;;;;;20.10;8.07;;;21.80;99.90;;;;;;7278021;19;20186;-75
2023/08/17 08:51:43;;;;;;;19.27;9.07;;;21.80;99.90;;;;;;7278082;19;20225;-76
2023/08/17 08:54:13;;;;;;;15.80;8.37;;;22.00;99.90;;;;;;7278665;19;20203;-75
2023/08/17 08:56:42;;;;;;;20.03;8.47;;;21.90;99.90;;;;;;7278214;19;20227;-75
2023/08/17 08:59:09;;;;;;;18.80;9.37;;;22.10;99.90;;;;;;7277318;19;20603;-75
2023/08/17 09:01:35;;;;;;;18.83;8.70;;;22.40;99.90;;;;;;7277638;19;20192;-75
2023/08/17 09:04:02;;;;;;;21.70;9.43;;;22.60;99.90;;;;;;7276409;19;20192;-75
2023/08/17 09:06:30;;;;;;;19.43;9.60;;;22.30;99.90;;;;;;7296250;19;20537;-75
2023/08/17 09:08:59;;;;;;;21.07;10.13;;;22.30;99.90;;;;;;7299826;19;20690;-76
2023/08/17 09:11:25;;;;;;;18.20;8.53;;;22.20;99.90;;;;;;7278444;19;20237;-76
2023/08/17 09:13:53;;;;;;;18.87;8.50;;;22.30;99.90;;;;;;7277503;19;20192;-76
2023/08/17 09:16:18;;;;;;;21.37;9.20;;;22.40;99.90;;;;;;7277290;19;20603;-75
2023/08/17 09:18:44;;;;;;;17.97;9.50;;;22.60;99.90;;;;;;7278145;19;20228;-75
2023/08/17 09:21:21;;;;;;;22.73;10.37;;;22.40;99.90;;;;;;7275527;19;20531;-74
2023/08/17 09:23:54;;;;;;;23.63;9.80;;;22.10;99.90;;;;;;7276396;19;20599;-75
2023/08/17 09:26:24;;;;;;;18.83;9.47;;;21.90;99.90;;;;;;7277248;19;20315;-75
2023/08/17 09:28:51;;;;;;;21.23;10.63;;;21.80;99.90;;;;;;7277732;19;20192;-75
2023/08/17 09:31:23;;;;;;;23.77;11.43;;;21.80;99.90;;;;;;7277451;19;20187;-75
2023/08/17 09:33:50;;;;;;;23.43;11.70;;;22.00;99.90;;;;;;7277973;19;20196;-75
2023/08/17 09:36:21;;;;;;;23.37;10.77;;;22.10;99.90;;;;;;7279101;19;20189;-75
2023/08/17 09:38:49;;;;;;;23.60;10.20;;;22.50;99.90;;;;;;7275297;19;20189;-75
2023/08/17 09:41:16;;;;;;;21.43;9.23;;;22.90;99.90;;;;;;7276706;19;20188;-75
2023/08/17 09:43:42;;;;;;;19.23;9.53;;;23.50;99.90;;;;;;7276115;19;20264;-75
2023/08/17 09:46:08;;;;;;;18.47;9.60;;;24.60;99.90;;;;;;7277207;19;20237;-75
2023/08/17 09:48:35;;;;;;;18.53;9.43;;;25.30;99.90;;;;;;7283370;19;20787;-75
2023/08/17 09:51:02;;;;;;;19.30;9.37;;;25.90;99.90;;;;;;7283915;19;21010;-75
2023/08/17 09:53:28;;;;;;;23.77;12.00;;;26.20;99.90;;;;;;7304301;19;20664;-75
2023/08/17 09:55:55;;;;;;;16.00;9.27;;;25.70;99.90;;;;;;7283895;19;20196;-75
2023/08/17 09:58:21;;;;;;;19.27;9.87;;;25.00;99.90;;;;;;7283289;19;20253;-75
2023/08/17 10:00:50;;;;;;;16.73;9.03;;;24.80;99.90;;;;;;7282561;19;20193;-75
2023/08/17 10:03:17;;;;;;;20.87;10.40;;;24.60;99.90;;;;;;7282866;19;20221;-75
2023/08/17 10:05:45;;;;;;;18.50;9.60;;;24.40;99.90;;;;;;7282740;19;20260;-75
2023/08/17 10:08:12;;;;;;;16.70;10.03;;;24.20;99.90;;;;;;7283220;19;20624;-75
2023/08/17 10:10:44;;;;;;;14.90;9.40;;;24.10;99.90;;;;;;7282714;19;20696;-75
2023/08/17 10:13:16;;;;;;;17.33;9.17;;;24.30;99.90;;;;;;7283124;19;20268;-75
2023/08/17 10:15:48;;;;;;;17.13;9.20;;;24.50;99.90;;;;;;7282285;19;20192;-75
2023/08/17 10:18:34;;;;;;;17.47;8.47;;;24.50;99.90;;;;;;7281833;19;20221;-74
2023/08/17 10:21:10;;;;;;;17.03;9.47;;;24.60;99.90;;;;;;7267638;19;20222;-76
2023/08/17 10:23:37;;;;;;;18.03;10.30;;;24.60;99.90;;;;;;7283048;19;20264;-75
2023/08/17 10:26:03;;;;;;;18.27;10.27;;;24.30;99.90;;;;;;7282645;19;20189;-75
2023/08/17 10:28:31;;;;;;;16.90;9.83;;;24.10;99.90;;;;;;7301090;19;20203;-75
2023/08/17 10:30:57;;;;;;;17.10;10.60;;;24.30;99.90;;;;;;7303100;19;20210;-75
2023/08/17 10:33:24;;;;;;;19.60;11.03;;;24.30;99.90;;;;;;7283238;19;20185;-75
2023/08/17 10:35:50;;;;;;;20.17;10.73;;;24.10;99.90;;;;;;7283481;19;20190;-75
2023/08/17 10:38:17;;;;;;;17.60;10.90;;;24.00;99.90;;;;;;7279883;19;20193;-75
2023/08/17 10:40:43;;;;;;;20.37;10.93;;;23.90;99.90;;;;;;7281333;19;20201;-74
2023/08/17 10:43:09;;;;;;;20.23;11.40;;;23.70;99.90;;;;;;7281821;19;20214;-74
2023/08/17 10:45:38;;;;;;;19.87;11.57;;;23.60;99.90;;;;;;7283003;19;20184;-75
2023/08/17 10:48:06;;;;;;;19.33;11.57;;;23.60;99.90;;;;;;7281558;19;20193;-75
2023/08/17 10:50:35;;;;;;;19.00;11.07;;;23.60;99.90;;;;;;7283042;19;20192;-75
2023/08/17 10:53:08;;;;;;;18.57;10.63;;;23.70;99.90;;;;;;7281421;19;20192;-74
2023/08/17 10:55:44;;;;;;;18.80;10.87;;;23.80;99.90;;;;;;7282293;19;20197;-76
2023/08/17 10:58:11;;;;;;;20.30;11.30;;;23.90;99.90;;;;;;7278789;19;20790;-76
2023/08/17 11:00:41;;;;;;;21.03;12.17;;;24.00;99.90;;;;;;7281651;19;20257;-76
2023/08/17 11:03:10;;;;;;;19.63;11.30;;;23.80;99.90;;;;;;7280938;19;20199;-76
2023/08/17 11:05:40;;;;;;;21.43;12.30;;;23.80;99.90;;;;;;7281384;19;20737;-76
2023/08/17 11:08:09;;;;;;;22.33;11.80;;;23.80;99.90;;;;;;7281382;19;20193;-76
2023/08/17 11:10:35;;;;;;;24.63;13.17;;;24.00;99.90;;;;;;7280848;19;20188;-76
2023/08/17 11:13:04;;;;;;;21.90;13.17;;;24.00;99.90;;;;;;7280529;19;20684;-76
2023/08/17 11:15:44;;;;;;;23.67;13.47;;;24.00;99.90;;;;;;7289921;19;20213;-76
2023/08/17 11:18:11;;;;;;;23.63;13.13;;;24.00;99.90;;;;;;7280146;19;20203;-76
2023/08/17 11:20:39;;;;;;;20.90;12.40;;;24.10;99.90;;;;;;7280725;19;20552;-76
2023/08/17 11:23:06;;;;;;;22.97;12.73;;;24.30;99.90;;;;;;7281085;19;20264;-76
2023/08/17 11:25:34;;;;;;;21.67;12.60;;;24.40;99.90;;;;;;7280484;19;20192;-75
2023/08/17 11:28:00;;;;;;;23.47;13.80;;;24.30;99.90;;;;;;7291493;19;20199;-75
2023/08/17 11:30:27;;;;;;;23.33;13.10;;;24.00;99.90;;;;;;7302074;19;20246;-76
2023/08/17 11:32:54;;;;;;;22.00;13.77;;;23.90;99.90;;;;;;7281347;19;20199;-76
2023/08/17 11:35:21;;;;;;;23.43;13.47;;;24.00;99.90;;;;;;7281862;19;20550;-76
2023/08/17 11:37:49;;;;;;;26.27;13.70;;;24.10;99.90;;;;;;7280702;19;20692;-76
2023/08/17 11:40:15;;;;;;;26.20;14.70;;;24.30;99.90;;;;;;7279735;19;20195;-76
2023/08/17 11:42:42;;;;;;;21.67;12.60;;;24.50;99.90;;;;;;7280421;19;20199;-76
2023/08/17 11:45:09;;;;;;;25.67;13.70;;;24.80;99.90;;;;;;7279839;19;20196;-75
2023/08/17 11:47:36;;;;;;;22.70;13.33;;;24.70;99.90;;;;;;7280584;19;20535;-75
2023/08/17 11:50:06;;;;;;;23.63;13.30;;;24.80;99.90;;;;;;7279904;19;20308;-76
2023/08/17 11:52:38;;;;;;;22.53;13.30;;;24.80;99.90;;;;;;7281527;19;20189;-76
2023/08/17 11:55:09;;;;;;;24.70;13.67;;;24.60;99.90;;;;;;7279997;19;20232;-76
2023/08/17 11:57:38;;;;;;;24.60;13.43;;;24.30;99.90;;;;;;7278847;19;20213;-75
2023/08/17 12:00:12;;;;;;;22.93;12.77;;;24.40;99.90;;;;;;7279452;19;20223;-76
2023/08/17 12:02:42;;;;;;;25.13;13.67;;;24.40;99.90;;;;;;7280082;19;20212;-75
2023/08/17 12:05:09;;;;;;;23.07;13.40;;;24.40;99.90;;;;;;7281345;19;20292;-76
2023/08/17 12:07:35;;;;;;;22.43;12.90;;;24.30;99.90;;;;;;7280750;19;20197;-76
2023/08/17 12:10:04;;;;;;;24.80;14.20;;;24.30;99.90;;;;;;7279130;19;20192;-75
2023/08/17 12:12:30;;;;;;;24.97;14.77;;;24.00;99.90;;;;;;7286466;19;20189;-75
2023/08/17 12:14:58;;;;;;;27.93;14.80;;;23.90;99.90;;;;;;7300269;19;20574;-76
2023/08/17 12:17:24;;;;;;;27.07;14.93;;;23.80;99.90;;;;;;7281018;19;20200;-75
2023/08/17 12:19:54;;;;;;;26.47;15.53;;;23.60;99.90;;;;;;7278883;19;20186;-76
2023/08/17 12:22:23;;;;;;;26.10;15.13;;;23.70;99.90;;;;;;7277545;19;20218;-75
2023/08/17 12:24:49;;;;;;;24.30;15.73;;;23.80;99.90;;;;;;7278768;19;20228;-76
2023/08/17 12:27:14;;;;;;;27.70;15.87;;;23.80;99.90;;;;;;7279366;19;20188;-76
2023/08/17 12:29:50;;;;;;;25.20;15.50;;;23.80;99.90;;;;;;7278882;19;20192;-76
2023/08/17 12:32:20;;;;;;;26.57;16.50;;;23.80;99.90;;;;;;7278273;19;20180;-75
2023/08/17 12:34:46;;;;;;;25.67;15.73;;;23.70;99.90;;;;;;7280463;19;20226;-76
2023/08/17 12:37:18;;;;;;;26.03;14.90;;;23.70;99.90;;;;;;7277725;19;20273;-76